Sedgwick Reserve, California Weather observations

Data are for 10 minute period ending at time listed.
 Day   Time   Solar   Ave.   Ave.  Ave.  Vector  Max.   Baro.   Total    
  of    of     Rad.   Air    Rel.  Wind   Wind   Wind  Press.  Precip.   
Year   Day            Temp.  Hum.  Speed  Dir.   Gust                    
2019   (PST)  Kw/m2    F      %     mph   deg.    mph    mb.     in.     
-------------------------------------------------------------------------
 234    9:40   0.72   82.2    38    3.2   134     5.8   969.1    0.00 
 234    9:50   0.71   82.7    35    3.3   156     6.0   969.1    0.00 
 234   10:00   0.74   83.3    34    3.3   146     7.4   969.1    0.00 
 234   10:10   0.76   84.0    29    4.3   152     7.7   969.0    0.00 
 234   10:20   0.79   86.1    28    4.0   138     8.8   969.0    0.00 
 234   10:30   0.79   87.3    26    3.6   139     6.9   969.0    0.00 
 234   10:40   0.78   86.1    30    4.1   210     8.1   969.0    0.00 
 234   10:50   0.80   86.2    30    4.8   194     9.7   969.0    0.00 
 234   11:00   0.82   85.9    31    6.5   233    11.3   968.9    0.00 
 234   11:10   0.83   85.8    32    6.3   224    12.9   968.9    0.00 
 234   11:20   0.82   87.5    28    6.1   262    12.0   968.8    0.00 
 234   11:30   0.81   87.6    28    6.1   243    12.0   968.7    0.00 
 234   11:40   0.86   87.5    32    8.1   240    14.7   968.6    0.00 
 234   11:50   0.87   87.4    35    9.1   242    14.0   968.4    0.00 
 234   12:00   0.86   88.7    35    7.5   223    12.1   968.3    0.00 
 234   12:10   0.85   88.6    34    7.6   274    12.9   968.2    0.00 
 234   12:20   0.83   89.0    34    8.7   270    14.6   968.1    0.00 
 234   12:30   0.81   89.5    34    8.8   297    14.0   968.0    0.00 
 234   12:40   0.82   89.1    35    9.7   276    16.4   968.0    0.00 
 234   12:50   0.83   88.6    37   10.8   285    17.8   967.9    0.00 
 234   13:00   0.82   88.8    37    9.7   262    15.8   967.7    0.00 
 234   13:10   0.80   89.5    38    9.7   286    17.8   967.6    0.00 
 234   13:20   0.79   87.7    40   12.8   266    19.6   967.5    0.00 
 234   13:30   0.76   87.6    40   12.3   264    17.2   967.4    0.00 
 234   13:40   0.75   87.8    40   12.1   272    18.9   967.4    0.00 
 234   13:50   0.74   87.4    41   11.8   271    18.6   967.4    0.00 
 234   14:00   0.72   87.4    40   11.5   276    18.6   967.3    0.00 
 234   14:10   0.70   87.2    40   10.0   275    18.3   967.2    0.00 
 234   14:20   0.68   86.1    42   11.5   266    16.7   967.1    0.00 
 234   14:30   0.65   85.9    43   11.3   268    17.0   967.1    0.00 
 234   14:40   0.63   86.2    41   11.3   281    20.3   967.1    0.00 
 234   14:50   0.61   86.1    40   10.3   284    16.2   967.0    0.00 
 234   15:00   0.58   85.9    39   11.3   284    17.7   966.8    0.00 
 234   15:10   0.55   86.3    39    9.3   285    15.1   966.8    0.00 
 234   15:20   0.53   86.0    40    8.5   292    15.9   966.8    0.00 
 234   15:30   0.50   86.0    40    9.5   296    17.1   966.8    0.00 
 234   15:40   0.47   85.6    40    9.9   303    16.9   966.8    0.00 
 234   15:50   0.44   85.9    40    7.6   288    13.7   966.7    0.00 
 234   16:00   0.41   85.5    40    8.7   285    15.3   966.7    0.00 
 234   16:10   0.38   84.6    40    9.4   284    14.9   966.6    0.00 
 234   16:20   0.34   84.7    41    7.9   275    13.6   966.6    0.00 
 234   16:30   0.31   85.1    41    5.0   274    13.1   966.6    0.00 
 234   16:40   0.28   83.9    43    6.4   265    11.2   966.6    0.00 
 234   16:50   0.24   82.2    46    7.3   259    12.6   966.7    0.00 
 234   17:00   0.22   81.3    47    8.7   271    14.8   966.7    0.00 
 234   17:10   0.19   80.8    48    8.6   265    12.3   966.8    0.00 
 234   17:20   0.16   80.6    49    6.6   264    10.6   966.9    0.00 
 234   17:30   0.13   79.6    50    7.1   264    10.3   966.9    0.00 
 234   17:40   0.10   78.9    51    6.9   270     9.7   967.0    0.00 
 234   17:50   0.07   77.9    53    6.2   264     8.8   967.0    0.00 
 234   18:00   0.05   77.1    54    6.6   270     9.1   967.1    0.00 
 234   18:10   0.03   76.6    54    3.9   254     7.5   967.3    0.00 
 234   18:20   0.02   74.7    58    3.4   127     6.4   967.4    0.00 
 234   18:30   0.01   72.0    62    5.5   145     8.5   967.5    0.00 
 234   18:40   0.01   69.9    66    4.9   142     6.7   967.6    0.00 
 234   18:50   0.00   69.3    67    3.9   139     5.8   967.8    0.00 
 234   19:00   0.00   68.3    69    3.8   139     6.2   967.9    0.00 
 234   19:10   0.00   67.7    70    3.2   137     5.3   968.0    0.00 
 234   19:20   0.00   67.1    71    3.1   133     5.0   968.0    0.00 
 234   19:30   0.00   66.7    71    2.5   151     3.7   968.1    0.00 
 234   19:40   0.00   66.3    72    2.4   138     4.7   968.2    0.00 
 234   19:50   0.00   65.3    74    2.9   131     5.6   968.3    0.00 
 234   20:00   0.00   64.4    76    2.4   123     5.0   968.4    0.00 
 234   20:10   0.00   63.7    78    4.1   136     6.4   968.4    0.00 
 234   20:20   0.00   62.7    80    3.4   132     6.1   968.5    0.00 
 234   20:30   0.00   61.9    82    3.1   126     5.0   968.5    0.00 
 234   20:40   0.00   61.3    83    2.5   130     4.7   968.6    0.00 
 234   20:50   0.00   60.9    84    1.7   129     3.3   968.6    0.00 
 234   21:00   0.00   60.7    85    1.5   108     2.5   968.6    0.00 
 234   21:10   0.00   60.4    85    1.7   133     2.5   968.6    0.00 
 234   21:20   0.00   60.1    86    1.9   139     2.9   968.6    0.00 
 234   21:30   0.00   59.9    86    2.1   124     3.4   968.6    0.00 
 234   21:40   0.00   59.5    87    1.4    96     2.3   968.6    0.00 
 234   21:50   0.00   59.3    88    2.4   118     3.7   968.6    0.00 
 234   22:00   0.00   59.1    88    1.8   122     2.9   968.5    0.00 
 234   22:10   0.00   58.8    89    1.2   112     2.1   968.4    0.00 
 234   22:20   0.00   58.7    89    0.2    94     1.0   968.4    0.00 
 234   22:30   0.00   58.4    89    0.2    53     0.7   968.4    0.00 
 234   22:40   0.00   57.5    88    0.7    20     1.5   968.5    0.00 
 234   22:50   0.00   57.4    88    0.6    54     1.6   968.6    0.00 
 234   23:00   0.00   57.2    87    0.2   110     1.2   968.5    0.00 
 234   23:10   0.00   57.4    87    1.3   132     2.2   968.4    0.00 
 234   23:20   0.00   57.3    88    1.6   135     2.9   968.2    0.00 
 234   23:30   0.00   57.1    89    2.1   132     3.4   968.2    0.00 
 234   23:40   0.00   57.0    90    1.4   144     2.8   968.2    0.00 
 234   23:50   0.00   56.7    90    1.3    99     1.9   968.1    0.00 
 235    0:00   0.00   56.0    91    0.5    44     1.5   968.2    0.00 
 235    0:10   0.00   56.5    92    0.4    23     1.5   968.2    0.00 
 235    0:20   0.00   55.9    92    0.4   252     1.4   968.3    0.00 
 235    0:30   0.00   55.9    92    1.6   255     2.2   968.4    0.00 
 235    0:40   0.00   55.2    93    1.3   264     2.0   968.4    0.00 
 235    0:50   0.00   54.7    92    1.3   245     2.1   968.6    0.00 
 235    1:00   0.00   54.8    91    1.6   153     2.8   968.7    0.00 
 235    1:10   0.00   54.7    91    0.9   158     2.4   968.8    0.00 
 235    1:20   0.00   55.0    91    1.1   259     2.2   968.8    0.00 
 235    1:30   0.00   55.3    92    0.7   261     1.4   968.8    0.00 
 235    1:40   0.00   55.6    94    0.0   278     0.9   968.9    0.00 
 235    1:50   0.00   54.6    94    1.8    15     3.2   968.9    0.00 
 235    2:00   0.00   54.4    95    1.8     4     3.0   968.9    0.00 
 235    2:10   0.00   54.9    96    0.1   357     1.0   969.0    0.00 
 235    2:20   0.00   55.1    96    0.0     0     0.0   969.1    0.00 
 235    2:30   0.00   55.1    96    0.8     2     2.3   969.3    0.00 
 235    2:40   0.00   55.1    97    0.2   356     2.2   969.4    0.00 
 235    2:50   0.00   55.3    97    1.8    16     4.3   969.5    0.00 
 235    3:00   0.00   54.8    97    2.7    12     4.2   969.4    0.00 
 235    3:10   0.00   54.5    98    1.6     9     3.2   969.4    0.00 
 235    3:20   0.00   54.4    98    2.5    27     3.5   969.5    0.00 
 235    3:30   0.00   54.3    98    2.9     9     3.9   969.5    0.00 
 235    3:40   0.00   54.4    99    2.1   359     3.2   969.4    0.00 
 235    3:50   0.00   54.4    98    3.4    13     5.2   969.3    0.00 
 235    4:00   0.00   53.9    99    3.4    16     5.0   969.4    0.00 
 235    4:10   0.00   53.5    99    3.5     8     4.7   969.4    0.00 
 235    4:20   0.00   53.5    99    2.7     8     4.6   969.4    0.00 
 235    4:30   0.00   53.6    99    3.7     8     6.0   969.4    0.00 
 235    4:40   0.00   53.9    98    2.3    13     3.9   969.5    0.00 
 235    4:50   0.00   54.2    99    1.9   359     4.1   969.7    0.00 
 235    5:00   0.00   55.0    98    0.9   334     2.7   969.8    0.00 
 235    5:10   0.00   55.1    98    0.7   274     1.8   969.8    0.00 
 235    5:20   0.00   55.3    98    1.1   282     1.9   969.9    0.00 
 235    5:30   0.00   55.6    98    0.0   284     0.9   970.0    0.00 
 235    5:40   0.00   56.0    98    0.3    12     1.9   970.1    0.00 
 235    5:50   0.01   56.2    98    0.8    20     2.3   970.2    0.00 
 235    6:00   0.02   56.4    98    1.5    24     2.7   970.2    0.00 
 235    6:10   0.03   56.8    98    1.0    36     2.6   970.3    0.00 
 235    6:20   0.04   57.3    97    0.3    12     1.8   970.4    0.00 
 235    6:30   0.05   57.8    97    1.7     4     3.9   970.3    0.00 
 235    6:40   0.06   58.1    96    2.2   349     4.4   970.3    0.00 
 235    6:50   0.09   58.6    95    1.1   334     3.0   970.4    0.00 
 235    7:00   0.09   59.0    94    1.7   249     3.2   970.5    0.00 
 235    7:10   0.10   59.1    93    1.0   250     2.3   970.6    0.00 
 235    7:20   0.11   59.6    92    1.4   256     3.6   970.6    0.00 
 235    7:30   0.14   59.9    91    2.0   263     4.2   970.7    0.00 
 235    7:40   0.20   60.0    91    2.6   253     5.2   970.9    0.00 
 235    7:50   0.41   61.2    89    2.1   254     3.9   970.9    0.00 
 235    8:00   0.33   63.0    84    1.2   269     3.5   971.0    0.00 
 235    8:10   0.45   63.7    81    2.5   284     4.8   971.0    0.00 
 235    8:20   0.56   65.3    77    2.5   206     5.0   971.1    0.00 
 235    8:30   0.62   67.2    73    3.9   256     7.8   971.2    0.00 
 235    8:40   0.65   66.4    75    4.8   272     8.0   971.3    0.00 
 235    8:50   0.59   66.7    75    5.9   283     8.5   971.3    0.00 
 235    9:00   0.58   67.7    73    3.3   265     6.7   971.3    0.00 
 235    9:10   0.68   69.3    69    4.2   220     8.0   971.3    0.00 
 235    9:20   0.65   69.1    70    5.3   244     9.4   971.4    0.00 
 235    9:30   0.67   69.3    70    3.1   232     7.7   971.3    0.00 

Return to Sedgwick Reserve graphs page.


Western Regional Climate Center,wrcc@dri.edu